Time;durP1;ratioP1;P1;durP2;ratioP2;P2;SDS_P1;SDS_P2;PMS_P1;PMS_P2;Temp;Humidity;BMP_temperature;BMP_pressure;BME280_temperature;BME280_humidity;BME280_pressure;Samples;Min_cycle;Max_cycle;Signal;HPM_P1;HPM_P2
2022/05/11 00:01:25;;;;;;;2.53;0.80;;;;;;;22.07;23.24;98908.94;5072652;28;20032;-64
2022/05/11 00:03:52;;;;;;;1.50;0.63;;;;;;;22.07;23.41;98903.56;5073246;28;20029;-66
2022/05/11 00:06:17;;;;;;;1.25;0.40;;;;;;;22.06;23.04;98907.28;5070952;28;20024;-64
2022/05/11 00:08:43;;;;;;;5.45;0.90;;;;;;;22.01;23.49;98902.53;5066832;28;20052;-65
2022/05/11 00:11:09;;;;;;;2.50;0.88;;;;;;;21.85;23.18;98906.50;5053266;28;20033;-63
2022/05/11 00:13:34;;;;;;;1.60;0.80;;;;;;;;;;5081792;28;20032;-65
2022/05/11 00:16:00;;;;;;;3.33;0.70;;;;;;;21.54;23.44;98902.59;5058521;28;20159;-62
2022/05/11 00:18:25;;;;;;;2.22;0.68;;;;;;;21.44;23.53;98894.94;5070872;28;20043;-63
2022/05/11 00:20:51;;;;;;;1.60;0.90;;;;;;;21.30;23.47;98894.09;5071810;28;20386;-63
2022/05/11 00:23:16;;;;;;;2.53;0.82;;;;;;;21.21;23.34;98895.34;5075353;28;20033;-62
2022/05/11 00:25:44;;;;;;;2.88;0.70;;;;;;;21.14;23.32;98892.66;5072127;28;20036;-63
2022/05/11 00:28:10;;;;;;;3.63;1.20;;;;;;;21.09;23.51;98891.63;5069671;28;20035;-64
2022/05/11 00:30:35;;;;;;;1.42;0.82;;;;;;;21.01;23.58;98893.44;5070768;28;20032;-64
2022/05/11 00:33:01;;;;;;;1.58;0.80;;;;;;;20.99;23.41;98892.00;5070529;28;20036;-65
2022/05/11 00:35:29;;;;;;;2.75;1.00;;;;;;;20.91;23.49;98884.97;5071172;28;20028;-64
2022/05/11 00:37:54;;;;;;;1.77;0.70;;;;;;;20.86;23.29;98884.75;5067778;28;20040;-64
2022/05/11 00:40:22;;;;;;;1.52;0.80;;;;;;;20.81;23.32;98888.03;5071005;28;20036;-64
2022/05/11 00:42:47;;;;;;;1.48;1.10;;;;;;;20.73;23.44;98883.66;5071099;28;20064;-64
2022/05/11 00:45:13;;;;;;;2.63;0.50;;;;;;;20.70;23.38;98883.25;5071122;28;20133;-64
2022/05/11 00:47:48;;;;;;;2.38;0.70;;;;;;;20.65;23.19;98873.09;5069142;28;21242;-64
2022/05/11 00:50:26;;;;;;;3.10;0.95;;;;;;;20.60;23.33;98878.25;5070800;28;20472;-65
2022/05/11 00:52:59;;;;;;;3.08;1.00;;;;;;;20.57;23.34;98875.94;5074562;28;20036;-65
2022/05/11 00:55:33;;;;;;;4.10;1.00;;;;;;;20.54;23.47;98874.50;5070531;28;20036;-64
2022/05/11 00:58:09;;;;;;;1.88;0.93;;;;;;;20.53;22.88;98877.38;5069468;28;20052;-64
2022/05/11 01:00:36;;;;;;;4.75;0.80;;;;;;;20.49;23.19;98881.53;5070452;28;20032;-64
2022/05/11 01:03:12;;;;;;;2.70;0.70;;;;;;;20.49;23.12;98889.59;5073562;28;20032;-64
2022/05/11 01:05:41;;;;;;;1.73;0.80;;;;;;;20.47;23.36;98886.25;5073990;28;20042;-62
2022/05/11 01:08:07;;;;;;;2.33;0.80;;;;;;;20.45;23.10;98888.31;5074002;28;20028;-63
2022/05/11 01:10:33;;;;;;;1.95;0.60;;;;;;;20.42;23.37;98878.81;5074245;28;20032;-64
2022/05/11 01:13:01;;;;;;;1.63;0.80;;;;;;;20.41;23.46;98882.53;5080864;28;20100;-64
2022/05/11 01:15:31;;;;;;;2.47;1.35;;;;;;;20.38;23.73;98870.31;5094064;28;20055;-64
2022/05/11 01:17:57;;;;;;;1.67;0.90;;;;;;;20.39;23.42;98876.53;5074273;28;20463;-64
2022/05/11 01:20:24;;;;;;;1.50;0.60;;;;;;;20.38;23.64;98886.44;5075054;28;20051;-64
2022/05/11 01:23:04;;;;;;;2.05;0.82;;;;;;;20.38;23.52;98872.19;5076920;28;20032;-64
2022/05/11 01:25:30;;;;;;;1.50;0.97;;;;;;;20.33;23.52;98872.78;5086638;28;20443;-64
2022/05/11 01:28:11;;;;;;;1.55;0.60;;;;;;;20.33;23.46;98872.78;5083900;28;20084;-64
2022/05/11 01:30:43;;;;;;;1.98;0.95;;;;;;;20.29;23.37;98871.53;5095415;28;20040;-64
2022/05/11 01:33:13;;;;;;;1.15;0.90;;;;;;;20.31;23.67;98874.00;5095189;28;20462;-64
2022/05/11 01:36:00;;;;;;;2.20;0.80;;;;;;;20.28;23.60;98877.91;5094160;28;20211;-65
2022/05/11 01:38:31;;;;;;;1.33;0.82;;;;;;;20.26;23.56;98877.28;5086698;28;20035;-65
2022/05/11 01:40:57;;;;;;;2.03;0.85;;;;;;;20.25;23.45;98875.63;5085941;28;20036;-65
2022/05/11 01:43:27;;;;;;;2.05;0.85;;;;;;;20.23;23.52;98867.78;5074497;28;20119;-65
2022/05/11 01:45:53;;;;;;;2.03;0.57;;;;;;;20.22;23.70;98876.88;5074703;28;20044;-65
2022/05/11 01:48:19;;;;;;;3.20;0.80;;;;;;;20.21;23.42;98871.72;5078076;28;20028;-66
2022/05/11 01:50:45;;;;;;;2.45;0.75;;;;;;;20.19;23.75;98860.34;5074585;28;20505;-65
2022/05/11 01:53:11;;;;;;;3.10;1.05;;;;;;;20.18;23.73;98872.91;5074656;28;20036;-65
2022/05/11 01:55:37;;;;;;;1.85;1.00;;;;;;;20.17;23.51;98868.56;5073990;28;20057;-65
2022/05/11 01:58:06;;;;;;;3.08;0.85;;;;;;;20.16;23.66;98874.16;5079130;28;20588;-65
2022/05/11 02:00:32;;;;;;;1.30;0.68;;;;;;;20.13;23.60;98876.22;5094544;28;20088;-65
2022/05/11 02:02:58;;;;;;;1.52;0.60;;;;;;;20.13;23.52;98862.78;5093127;28;20036;-65
2022/05/11 02:08:09;;;;;;;1.77;0.90;;;;;;;20.12;23.36;98858.44;5087545;28;20452;-65
2022/05/11 02:10:35;;;;;;;3.30;0.85;;;;;;;20.13;23.46;98859.28;5094346;28;20070;-65
2022/05/11 02:13:00;;;;;;;2.85;0.80;;;;;;;20.12;23.48;98861.13;5079248;28;20074;-65
2022/05/11 02:15:27;;;;;;;2.40;1.00;;;;;;;20.12;23.30;98860.31;5074313;28;20512;-66
2022/05/11 02:17:53;;;;;;;1.95;0.80;;;;;;;20.10;23.37;98862.34;5074188;28;20040;-65
2022/05/11 02:20:20;;;;;;;2.55;0.82;;;;;;;20.10;23.44;98859.66;5073923;28;20035;-66
2022/05/11 02:22:48;;;;;;;3.53;0.90;;;;;;;20.09;23.23;98858.81;5082950;28;20503;-65
2022/05/11 02:25:15;;;;;;;2.47;0.60;;;;;;;20.10;23.40;98852.44;5078383;28;20127;-65
2022/05/11 02:27:42;;;;;;;2.85;0.90;;;;;;;20.10;23.46;98852.44;5073494;28;20070;-65
2022/05/11 02:30:11;;;;;;;1.35;0.85;;;;;;;20.09;23.61;98842.72;5080080;28;20119;-65
2022/05/11 02:32:38;;;;;;;1.88;0.70;;;;;;;20.11;23.65;98853.28;5076890;28;20055;-65
2022/05/11 02:35:15;;;;;;;0.85;0.57;;;;;;;20.11;23.67;98856.78;5064551;28;20044;-65
2022/05/11 02:37:48;;;;;;;1.30;0.73;;;;;;;20.11;23.66;98853.28;5071763;28;20432;-65
2022/05/11 02:40:17;;;;;;;3.40;0.77;;;;;;;20.12;23.59;98854.94;5074449;28;20028;-65
2022/05/11 02:42:43;;;;;;;3.00;1.20;;;;;;;20.11;23.40;98855.97;5073674;28;20146;-65
2022/05/11 02:45:09;;;;;;;1.73;1.00;;;;;;;20.10;23.44;98851.63;5074001;28;20119;-65
2022/05/11 02:47:35;;;;;;;3.38;0.80;;;;;;;20.10;23.73;98860.47;5075737;28;20479;-65
2022/05/11 02:50:03;;;;;;;1.48;0.52;;;;;;;20.09;23.66;98860.69;5073026;28;20039;-65
2022/05/11 02:52:30;;;;;;;1.73;0.65;;;;;;;20.08;23.73;98853.66;5073245;28;20035;-65
2022/05/11 02:54:56;;;;;;;5.15;0.80;;;;;;;20.10;23.80;98857.81;5073238;28;20050;-65
2022/05/11 02:57:21;;;;;;;4.10;1.25;;;;;;;20.09;23.74;98853.47;5071550;28;20052;-65
2022/05/11 02:59:49;;;;;;;2.65;1.08;;;;;;;20.08;23.87;98849.09;5053507;28;20033;-65
2022/05/11 03:02:16;;;;;;;1.08;0.75;;;;;;;20.12;23.93;98849.56;5053036;28;20029;-65
2022/05/11 03:04:42;;;;;;;6.30;1.08;;;;;;;20.13;23.70;98851.22;5053389;28;20025;-65
2022/05/11 03:07:07;;;;;;;2.33;1.00;;;;;;;20.14;23.47;98850.19;5058100;28;20031;-65
2022/05/11 03:09:33;;;;;;;3.03;0.70;;;;;;;20.17;23.79;98852.47;5072906;28;20032;-66
2022/05/11 03:11:58;;;;;;;3.50;0.80;;;;;;;20.16;23.82;98844.63;5072976;28;20086;-65
2022/05/11 03:14:24;;;;;;;0.90;0.60;;;;;;;20.15;24.04;98846.44;5073119;28;20040;-66
2022/05/11 03:16:50;;;;;;;1.92;0.75;;;;;;;20.15;23.74;98848.31;5059111;28;20029;-64
2022/05/11 03:19:15;;;;;;;4.50;0.90;;;;;;;20.14;23.44;98850.19;5080903;28;20169;-65
2022/05/11 03:21:41;;;;;;;4.72;0.90;;;;;;;20.17;23.67;98847.09;5072602;28;20032;-65
2022/05/11 03:24:06;;;;;;;2.75;0.90;;;;;;;20.17;23.86;98844.41;5073037;28;20039;-65
2022/05/11 03:26:34;;;;;;;4.93;1.80;;;;;;;20.18;23.91;98845.25;5068359;28;20651;-64
2022/05/11 03:29:00;;;;;;;1.23;0.60;;;;;;;20.19;23.91;98844.22;5070289;28;20040;-65
2022/05/11 03:31:25;;;;;;;3.17;0.90;;;;;;;20.21;23.90;98842.16;5091868;28;20034;-65
2022/05/11 03:36:35;;;;;;;1.63;1.05;;;;;;;20.21;23.84;98847.53;5084572;28;20090;-65
2022/05/11 03:39:00;;;;;;;3.10;0.68;;;;;;;20.23;24.15;98840.91;5073979;28;20040;-65
2022/05/11 03:41:26;;;;;;;1.70;0.70;;;;;;;20.24;24.02;98847.09;5072424;28;20040;-65
2022/05/11 03:43:51;;;;;;;2.15;0.73;;;;;;;20.24;24.15;98847.94;5072880;28;20033;-65
2022/05/11 03:46:17;;;;;;;1.90;0.65;;;;;;;20.24;24.07;98847.94;5072544;28;20048;-64
2022/05/11 03:48:42;;;;;;;5.05;0.77;;;;;;;20.24;23.86;98850.63;5061741;28;20045;-65
2022/05/11 03:51:08;;;;;;;1.23;0.88;;;;;;;20.23;23.85;98846.28;5052684;28;20086;-65
2022/05/11 03:53:36;;;;;;;1.65;1.00;;;;;;;20.23;23.78;98846.28;5052917;28;20097;-65
2022/05/11 03:56:02;;;;;;;2.25;0.90;;;;;;;20.21;23.98;98847.53;5052219;28;20029;-65
2022/05/11 03:58:27;;;;;;;3.83;0.90;;;;;;;20.21;23.69;98853.72;5067589;28;20525;-65
2022/05/11 04:00:53;;;;;;;4.97;1.10;;;;;;;20.19;24.01;98847.72;5072979;28;20040;-64
2022/05/11 04:03:18;;;;;;;1.55;0.88;;;;;;;20.22;23.85;98854.56;5072247;28;20040;-65
2022/05/11 04:05:44;;;;;;;2.17;0.70;;;;;;;20.19;23.97;98845.03;5072523;28;20440;-65
2022/05/11 04:08:09;;;;;;;1.50;0.70;;;;;;;20.18;24.07;98843.38;5080585;28;20028;-64
2022/05/11 04:10:35;;;;;;;1.75;0.88;;;;;;;20.16;23.96;98850.78;5072235;28;20090;-65
2022/05/11 04:13:02;;;;;;;1.95;0.90;;;;;;;20.16;23.91;98849.97;5071847;28;20036;-66
2022/05/11 04:15:27;;;;;;;3.33;1.13;;;;;;;20.16;24.16;98852.66;5070811;28;20495;-65
2022/05/11 04:17:53;;;;;;;3.08;0.88;;;;;;;20.14;24.13;98858.25;5076122;28;20028;-65
2022/05/11 04:20:19;;;;;;;2.15;0.75;;;;;;;20.13;24.00;98856.59;5092965;28;20086;-65
2022/05/11 04:22:45;;;;;;;1.83;0.90;;;;;;;20.13;23.96;98843.97;5079530;28;20028;-65
2022/05/11 04:25:15;;;;;;;3.90;0.80;;;;;;;20.13;24.28;98845.84;5072059;28;20033;-65
2022/05/11 04:27:48;;;;;;;1.60;0.80;;;;;;;20.16;24.05;98849.97;5078617;28;20495;-66
2022/05/11 04:30:16;;;;;;;2.15;0.98;;;;;;;20.18;24.12;98847.94;5092232;28;20028;-65
2022/05/11 04:32:42;;;;;;;2.30;0.73;;;;;;;20.21;23.82;98842.97;5084287;28;20161;-63
2022/05/11 04:35:08;;;;;;;1.23;0.77;;;;;;;20.23;23.87;98842.75;5072656;28;20107;-64
2022/05/11 04:37:34;;;;;;;2.22;1.17;;;;;;;20.23;23.88;98842.75;5072368;28;20020;-64
2022/05/11 04:40:00;;;;;;;2.13;0.85;;;;;;;20.25;23.84;98838.88;5091990;28;20047;-65
2022/05/11 04:42:25;;;;;;;1.48;0.70;;;;;;;20.26;23.64;98837.84;5075435;28;20111;-63
2022/05/11 04:44:54;;;;;;;2.22;0.98;;;;;;;20.27;23.58;98836.81;5075778;28;20036;-66
2022/05/11 04:47:40;;;;;;;2.60;0.90;;;;;;;20.27;23.70;98830.59;5081590;28;20031;-65
2022/05/11 04:50:06;;;;;;;1.90;0.60;;;;;;;20.27;23.79;98825.22;5055975;28;20400;-64
2022/05/11 04:52:32;;;;;;;2.55;0.98;;;;;;;20.26;23.86;98818.19;5088528;28;20032;-65
2022/05/11 04:54:58;;;;;;;1.08;0.80;;;;;;;20.30;24.01;98822.13;5096402;28;20028;-65
2022/05/11 04:57:23;;;;;;;3.05;0.80;;;;;;;20.32;23.88;98820.09;5085677;28;20051;-64
2022/05/11 04:59:50;;;;;;;3.42;0.80;;;;;;;20.34;23.84;98814.50;5075665;28;20372;-64
2022/05/11 05:02:22;;;;;;;1.83;0.75;;;;;;;20.37;24.04;98812.22;5075623;28;20044;-64
2022/05/11 05:04:47;;;;;;;;;;;;;;;20.37;23.59;98814.91;5076221;28;20052;-63
2022/05/11 05:07:13;;;;;;;4.53;1.48;;;;;;;20.40;23.76;98816.38;5075462;28;19924;-64
2022/05/11 05:09:39;;;;;;;1.33;0.50;;;;;;;20.42;23.78;98815.16;5074226;28;20047;-64
2022/05/11 05:12:05;;;;;;;4.43;0.82;;;;;;;20.49;23.64;98820.53;5081008;28;20036;-65
2022/05/11 05:14:31;;;;;;;1.95;0.57;;;;;;;20.50;23.66;98824.06;5095331;28;20055;-64
2022/05/11 05:17:15;;;;;;;2.13;0.82;;;;;;;20.53;23.76;98824.47;5090923;28;20053;-63
2022/05/11 05:19:43;;;;;;;1.10;0.70;;;;;;;20.54;23.80;98819.91;5095494;28;20047;-64
2022/05/11 05:22:08;;;;;;;2.15;0.80;;;;;;;20.57;23.26;98819.50;5087052;28;20150;-64
2022/05/11 05:24:34;;;;;;;2.20;0.82;;;;;;;20.61;23.51;98833.38;5075124;28;20507;-64
2022/05/11 05:27:01;;;;;;;3.83;1.77;;;;;;;20.64;23.47;98817.69;5068364;28;20035;-65
2022/05/11 05:32:11;;;;;;;4.05;1.02;;;;;;;20.74;23.40;98820.78;5091158;28;20034;-65
2022/05/11 05:34:37;;;;;;;4.75;0.98;;;;;;;20.82;23.60;98818.94;5074651;28;20028;-66
2022/05/11 05:37:03;;;;;;;1.45;0.75;;;;;;;20.89;23.25;98817.13;5074738;28;20094;-66
2022/05/11 05:39:29;;;;;;;1.55;0.70;;;;;;;20.94;23.32;98817.34;5083429;28;20032;-66
2022/05/11 05:41:54;;;;;;;2.22;1.30;;;;;;;20.99;23.15;98814.03;5072884;28;20035;-65
2022/05/11 05:44:20;;;;;;;2.15;0.80;;;;;;;21.05;23.32;98805.09;5074858;28;20090;-65
2022/05/11 05:46:46;;;;;;;3.97;0.90;;;;;;;21.08;23.32;98804.69;5078025;28;20506;-65
2022/05/11 05:49:12;;;;;;;3.25;0.75;;;;;;;21.15;23.22;98802.00;5080435;28;20054;-64
2022/05/11 05:51:39;;;;;;;4.55;0.88;;;;;;;21.24;23.00;98806.16;5074762;28;20043;-65
2022/05/11 05:54:05;;;;;;;1.50;0.82;;;;;;;21.28;23.03;98793.91;5074981;28;20033;-65
2022/05/11 05:56:32;;;;;;;2.13;0.82;;;;;;;21.33;22.93;98806.75;5074024;28;20427;-66
2022/05/11 05:59:03;;;;;;;3.90;0.95;;;;;;;21.36;22.79;98809.00;5074338;28;20025;-66
2022/05/11 06:01:28;;;;;;;5.50;0.70;;;;;;;21.37;22.66;98813.38;5075178;28;20074;-65
2022/05/11 06:03:54;;;;;;;3.75;0.80;;;;;;;21.39;22.68;98805.09;5090121;28;20036;-66
2022/05/11 06:06:21;;;;;;;2.35;0.90;;;;;;;21.39;22.88;98789.75;5074447;28;20446;-65
2022/05/11 06:08:47;;;;;;;3.65;1.00;;;;;;;21.44;22.74;98802.59;5074587;28;20078;-65
2022/05/11 06:11:12;;;;;;;0.90;0.47;;;;;;;21.44;22.77;98798.06;5086534;28;20052;-65
2022/05/11 06:13:38;;;;;;;1.52;0.75;;;;;;;21.45;22.32;98804.25;5094402;28;20048;-66
2022/05/11 06:16:10;;;;;;;2.28;0.63;;;;;;;21.45;22.42;98802.41;5068800;28;20553;-66
2022/05/11 06:18:36;;;;;;;4.00;1.52;;;;;;;21.45;22.64;98793.47;5071926;28;20152;-66
2022/05/11 06:21:01;;;;;;;1.42;0.68;;;;;;;21.44;22.51;98794.50;5081732;28;20178;-65
2022/05/11 06:23:27;;;;;;;4.72;0.95;;;;;;;21.43;22.68;98796.41;5076570;28;20086;-66
2022/05/11 06:25:52;;;;;;;7.47;0.82;;;;;;;21.44;22.47;98781.91;5073919;28;20036;-65
2022/05/11 06:28:19;;;;;;;3.63;0.80;;;;;;;21.46;22.50;98793.28;5088457;28;20505;-66
2022/05/11 06:30:46;;;;;;;1.60;0.68;;;;;;;21.46;22.47;98787.91;5094200;28;20036;-66
2022/05/11 06:33:12;;;;;;;6.90;1.00;;;;;;;21.50;22.57;98782.91;5080535;28;20063;-65
2022/05/11 06:35:37;;;;;;;2.15;1.45;;;;;;;21.48;22.76;98776.91;5072958;28;20036;-64
2022/05/11 06:38:05;;;;;;;5.35;0.88;;;;;;;21.50;22.28;98778.34;5075164;28;20040;-65
2022/05/11 06:40:31;;;;;;;2.08;0.90;;;;;;;21.53;22.44;98778.97;5073824;28;20099;-66
2022/05/11 06:42:57;;;;;;;4.68;1.00;;;;;;;21.50;22.64;98777.53;5072247;28;20028;-65
2022/05/11 06:45:23;;;;;;;3.15;0.80;;;;;;;21.53;22.40;98776.28;5074273;28;20457;-66
2022/05/11 06:47:49;;;;;;;3.67;0.98;;;;;;;21.53;22.64;98762.81;5077062;28;20043;-67
2022/05/11 06:50:16;;;;;;;4.50;2.15;;;;;;;21.57;22.50;98769.44;5066799;28;20056;-67
2022/05/11 06:52:52;;;;;;;2.17;0.90;;;;;;;21.58;22.39;98758.44;5073287;28;20028;-66
2022/05/11 07:00:46;;;;;;;15.68;1.70;;;;;;;21.72;22.53;98759.28;5083316;28;20288;-65
2022/05/11 07:03:12;;;;;;;15.05;1.63;;;;;;;21.72;22.79;98755.75;5083559;28;20144;-65
2022/05/11 07:05:39;;;;;;;3.25;1.67;;;;;;;21.75;22.55;98758.00;5063604;28;20475;-64
2022/05/11 07:08:05;;;;;;;7.22;1.55;;;;;;;21.76;22.38;98746.22;5074064;28;20032;-65
2022/05/11 07:10:36;;;;;;;5.85;1.45;;;;;;;21.76;22.20;98746.22;5072374;28;20086;-65
2022/05/11 07:13:02;;;;;;;7.72;1.40;;;;;;;21.72;22.20;98744.97;5071392;28;20040;-66
2022/05/11 07:15:28;;;;;;;5.18;1.42;;;;;;;21.71;22.44;98754.09;5072501;28;20063;-65
2022/05/11 07:17:56;;;;;;;2.75;1.50;;;;;;;21.71;22.25;98744.16;5063553;28;20174;-65
2022/05/11 07:20:22;;;;;;;3.45;1.30;;;;;;;21.76;22.19;98751.59;5069964;28;20090;-64
2022/05/11 07:22:47;;;;;;;4.65;1.42;;;;;;;21.78;22.36;98754.91;5071888;28;20028;-65
2022/05/11 07:25:19;;;;;;;3.50;1.10;;;;;;;21.82;22.43;98737.28;5073163;28;20047;-65
2022/05/11 07:27:46;;;;;;;9.80;1.50;;;;;;;21.87;22.30;98750.91;5069104;28;20087;-64
2022/05/11 07:30:15;;;;;;;4.97;1.15;;;;;;;21.93;21.98;98752.78;5072153;28;20122;-65
2022/05/11 07:32:41;;;;;;;3.08;1.30;;;;;;;21.93;21.78;98747.38;5072922;28;20044;-65
2022/05/11 07:35:07;;;;;;;2.58;1.10;;;;;;;21.95;21.77;98748.00;5077712;28;20042;-64
2022/05/11 07:37:32;;;;;;;3.60;1.20;;;;;;;21.98;22.00;98737.84;5068291;28;20037;-64
2022/05/11 07:39:59;;;;;;;5.32;1.23;;;;;;;21.97;22.24;98739.69;5064576;28;20050;-65
2022/05/11 07:42:25;;;;;;;3.78;1.42;;;;;;;22.03;22.36;98743.38;5063490;28;20033;-66
2022/05/11 07:44:51;;;;;;;4.43;1.00;;;;;;;22.07;22.19;98744.63;5071819;28;20032;-65
2022/05/11 07:47:17;;;;;;;5.50;1.50;;;;;;;22.08;22.30;98743.56;5071427;28;20032;-66
2022/05/11 07:49:42;;;;;;;7.82;1.30;;;;;;;22.08;22.23;98739.00;5076959;28;20041;-66
2022/05/11 07:52:08;;;;;;;5.53;1.25;;;;;;;22.13;22.26;98734.84;5077462;28;20502;-66
2022/05/11 07:54:34;;;;;;;1.95;1.00;;;;;;;22.16;22.26;98731.72;5092599;28;20107;-66
2022/05/11 07:59:52;;;;;;;3.92;1.33;;;;;;;22.15;22.03;98733.56;5074193;28;20046;-66
2022/05/11 08:02:22;;;;;;;1.30;0.85;;;;;;;22.15;22.28;98724.69;5071973;28;20032;-66
2022/05/11 08:04:47;;;;;;;5.93;1.30;;;;;;;22.17;22.27;98722.59;5073429;28;20071;-66
2022/05/11 08:07:13;;;;;;;4.10;1.08;;;;;;;22.24;22.23;98726.06;5078035;28;20055;-66
2022/05/11 08:09:40;;;;;;;5.07;1.25;;;;;;;22.24;22.13;98720.69;5092470;28;20096;-65
2022/05/11 08:12:06;;;;;;;3.13;1.05;;;;;;;22.24;21.93;98715.28;5092465;28;20505;-66
2022/05/11 08:14:31;;;;;;;3.25;1.10;;;;;;;22.22;21.65;98720.91;5085369;28;20511;-65
2022/05/11 08:16:57;;;;;;;3.42;1.10;;;;;;;22.20;21.52;98716.78;5075814;28;20035;-65
2022/05/11 08:19:25;;;;;;;2.45;1.02;;;;;;;22.18;22.02;98711.59;5077360;28;20047;-65
2022/05/11 08:21:52;;;;;;;2.92;1.23;;;;;;;22.19;22.00;98713.25;5089460;28;20043;-66
2022/05/11 08:24:19;;;;;;;1.77;0.80;;;;;;;22.21;22.12;98704.94;5082776;28;20077;-66
2022/05/11 08:26:50;;;;;;;2.13;0.93;;;;;;;22.27;22.37;98697.88;5069890;28;20399;-65
2022/05/11 08:33:19;;;;;;;;;;;;;;;22.25;22.16;98701.63;5056750;28;20047;-65
2022/05/11 08:34:45;;;;;;;7.97;1.90;;;;;;;22.37;21.92;98695.50;5076157;28;20043;-65
2022/05/11 08:37:12;;;;;;;5.50;1.40;;;;;;;22.37;21.98;98698.22;5083987;28;20040;-65
2022/05/11 08:39:38;;;;;;;4.28;1.77;;;;;;;22.37;21.93;98698.22;5076382;28;20040;-66
2022/05/11 08:42:04;;;;;;;4.32;1.63;;;;;;;22.44;22.38;98695.50;5078334;28;20140;-65
2022/05/11 08:44:34;;;;;;;2.75;1.50;;;;;;;22.52;22.53;98690.66;5096392;28;20130;-65
2022/05/11 08:47:27;;;;;;;2.10;1.10;;;;;;;22.63;22.21;98691.81;5095692;28;20431;-64
2022/05/11 08:49:59;;;;;;;3.40;1.10;;;;;;;22.71;21.95;98693.41;5045090;28;20060;-65
2022/05/11 08:52:35;;;;;;;3.33;1.23;;;;;;;22.75;22.26;98677.63;5075975;28;20094;-66
2022/05/11 08:55:17;;;;;;;2.45;1.25;;;;;;;22.82;21.68;98689.16;5096534;28;20044;-66
2022/05/11 08:57:44;;;;;;;6.35;1.52;;;;;;;22.81;22.11;98684.81;5083359;28;20048;-65
2022/05/11 09:00:15;;;;;;;6.88;1.38;;;;;;;22.88;21.71;98687.44;5058438;28;20115;-65
2022/05/11 09:02:41;;;;;;;1.98;0.77;;;;;;;22.88;21.39;98693.66;5074725;28;20356;-66
2022/05/11 09:05:07;;;;;;;2.20;1.00;;;;;;;22.86;21.42;98685.81;5074831;28;20032;-66
2022/05/11 09:07:37;;;;;;;2.67;1.20;;;;;;;22.89;21.65;98683.69;5075635;28;20025;-66
2022/05/11 09:10:04;;;;;;;2.63;0.98;;;;;;;22.91;21.66;98677.03;5075775;28;20071;-65
2022/05/11 09:12:30;;;;;;;4.28;0.80;;;;;;;22.95;21.18;98685.50;5077569;28;20040;-65
2022/05/11 09:14:59;;;;;;;3.88;2.00;;;;;;;22.94;21.04;98687.38;5074885;28;20043;-65
2022/05/11 09:17:29;;;;;;;2.65;1.10;;;;;;;22.92;21.24;98689.50;5059024;28;20029;-66
2022/05/11 09:20:02;;;;;;;2.33;0.85;;;;;;;22.91;21.16;98681.59;5074588;28;20082;-66
2022/05/11 09:22:30;;;;;;;6.65;1.05;;;;;;;22.93;21.22;98679.50;5068226;28;20115;-66
2022/05/11 09:25:03;;;;;;;1.73;1.08;;;;;;;22.94;21.22;98689.25;5074072;28;20047;-65
2022/05/11 09:27:33;;;;;;;2.92;1.10;;;;;;;22.92;21.09;98676.00;5083994;28;20110;-65
2022/05/11 09:30:06;;;;;;;3.55;1.00;;;;;;;22.92;21.10;98689.50;5095397;28;20042;-65
2022/05/11 09:32:37;;;;;;;2.97;1.08;;;;;;;22.95;21.58;98689.00;5095265;28;20072;-65
2022/05/11 09:35:36;;;;;;;3.15;1.00;;;;;;;23.04;21.67;98686.06;5086676;28;20044;-65
2022/05/11 09:38:01;;;;;;;2.05;1.00;;;;;;;23.11;21.34;98687.63;5081447;28;20036;-65
2022/05/11 09:40:29;;;;;;;4.10;1.10;;;;;;;23.14;21.52;98689.03;5074622;28;20107;-65
2022/05/11 09:43:01;;;;;;;3.58;1.30;;;;;;;23.15;21.28;98680.75;5074729;28;20032;-65
2022/05/11 09:45:40;;;;;;;4.32;1.20;;;;;;;23.14;21.40;98684.50;5074865;28;20032;-65
2022/05/11 09:48:19;;;;;;;2.47;0.90;;;;;;;23.10;21.43;98690.53;5075673;28;20060;-65
2022/05/11 09:50:47;;;;;;;2.85;1.00;;;;;;;23.09;21.37;98681.63;5074894;28;20035;-64
2022/05/11 09:53:18;;;;;;;2.22;0.90;;;;;;;23.09;21.40;98678.94;5074895;28;20044;-65
2022/05/11 09:55:44;;;;;;;1.75;0.85;;;;;;;23.09;21.13;98695.13;5074497;28;20068;-64
2022/05/11 09:58:09;;;;;;;3.22;1.00;;;;;;;23.03;20.92;98682.50;5074166;28;20087;-65
2022/05/11 10:00:37;;;;;;;2.15;1.00;;;;;;;23.02;21.57;98688.94;5074582;28;20043;-64
2022/05/11 10:03:07;;;;;;;3.22;1.40;;;;;;;23.04;21.55;98678.75;5082846;28;20042;-64
2022/05/11 10:05:44;;;;;;;2.65;1.00;;;;;;;23.08;21.70;98696.16;5083027;28;20093;-64
2022/05/11 10:08:23;;;;;;;2.88;1.10;;;;;;;23.09;21.47;98696.97;5069021;28;20400;-65
2022/05/11 10:10:54;;;;;;;2.35;1.23;;;;;;;23.07;21.60;98691.81;5056613;28;20052;-64
2022/05/11 10:13:33;;;;;;;4.00;0.93;;;;;;;23.04;21.42;98703.03;5054133;28;20037;-65
2022/05/11 10:22:13;;;;;;;1.48;0.93;;;;;;;23.06;21.60;98690.16;5084649;28;20042;-65
2022/05/11 10:24:51;;;;;;;2.28;1.08;;;;;;;23.07;21.84;98696.41;5075973;28;20566;-66
2022/05/11 10:27:25;;;;;;;4.28;1.35;;;;;;;23.06;21.61;98692.84;5094809;28;20032;-65
2022/05/11 10:30:13;;;;;;;1.75;0.80;;;;;;;23.06;21.67;98692.84;5094102;28;20734;-64
2022/05/11 10:33:01;;;;;;;2.22;0.90;;;;;;;23.07;21.66;98696.41;5084921;28;20051;-64
2022/05/11 10:35:57;;;;;;;2.42;1.25;;;;;;;23.06;21.56;98695.56;5079489;28;20040;-65
2022/05/11 10:38:37;;;;;;;3.67;1.15;;;;;;;23.02;21.38;98686.25;5073258;28;20036;-64
2022/05/11 10:41:29;;;;;;;2.42;1.15;;;;;;;23.00;21.58;98680.28;5074038;28;20502;-65
2022/05/11 10:44:02;;;;;;;2.00;0.90;;;;;;;22.99;21.67;98689.41;5073277;28;20036;-65
2022/05/11 10:46:51;;;;;;;2.33;1.15;;;;;;;23.01;21.87;98676.53;5053634;28;20043;-64
2022/05/11 10:49:29;;;;;;;2.45;1.00;;;;;;;23.07;22.21;98685.59;5094019;28;20040;-64
2022/05/11 10:52:09;;;;;;;3.08;1.27;;;;;;;23.14;22.03;98687.19;5053586;28;20071;-64
2022/05/11 10:54:57;;;;;;;2.23;0.93;;;;;;;23.18;21.76;98679.47;5068541;28;20570;-65
2022/05/11 10:57:49;;;;;;;6.93;1.30;;;;;;;23.20;21.80;98673.81;5061634;28;20299;-65
2022/05/11 11:00:18;;;;;;;1.70;0.95;;;;;;;23.17;21.72;98675.13;5059539;28;20060;-65
2022/05/11 11:03:04;;;;;;;1.70;0.90;;;;;;;23.16;22.03;98674.28;5072894;28;20133;-66
2022/05/11 11:07:11;;;;;;;5.80;0.90;;;;;;;23.17;22.01;98672.41;5089003;28;20092;-65
2022/05/11 11:08:43;;;;;;;2.20;1.10;;;;;;;23.20;22.21;98668.44;5077751;28;20048;-65
2022/05/11 11:12:00;;;;;;;2.22;0.90;;;;;;;23.26;22.17;98656.78;5072601;28;20036;-65
2022/05/11 11:14:32;;;;;;;1.65;0.98;;;;;;;23.30;22.14;98653.41;5049992;28;20040;-65
2022/05/11 11:17:00;;;;;;;4.43;1.27;;;;;;;23.33;22.65;98652.09;5072992;28;20040;-65
2022/05/11 11:19:26;;;;;;;4.30;1.00;;;;;;;23.36;22.13;98643.56;5072887;28;20038;-65
2022/05/11 11:21:51;;;;;;;1.90;1.00;;;;;;;23.40;22.02;98652.03;5072421;28;20115;-65
2022/05/11 11:24:23;;;;;;;4.47;1.20;;;;;;;23.40;22.35;98652.03;5073731;28;20036;-65
2022/05/11 11:26:53;;;;;;;2.35;1.10;;;;;;;23.41;22.14;98642.88;5057337;28;20031;-65
2022/05/11 11:29:36;;;;;;;4.38;1.05;;;;;;;23.39;21.98;98643.13;5072937;28;20036;-65
2022/05/11 11:32:02;;;;;;;4.47;1.27;;;;;;;23.43;22.09;98647.03;5071177;28;20119;-66
2022/05/11 11:34:31;;;;;;;2.92;0.93;;;;;;;23.45;22.00;98644.09;5071117;28;20107;-66
2022/05/11 11:36:58;;;;;;;5.22;0.90;;;;;;;23.46;22.23;98641.16;5086677;28;20398;-67
2022/05/11 11:39:48;;;;;;;3.03;0.93;;;;;;;23.51;22.21;98636.94;5092949;28;20034;-65
2022/05/11 11:42:32;;;;;;;2.17;1.10;;;;;;;23.56;22.30;98635.22;5072314;28;20132;-65
2022/05/11 11:44:58;;;;;;;2.05;1.15;;;;;;;23.60;22.00;98633.72;5072776;28;20028;-66
2022/05/11 11:47:27;;;;;;;3.13;1.00;;;;;;;23.61;21.85;98627.25;5071470;28;20033;-65
2022/05/11 11:49:59;;;;;;;2.33;1.23;;;;;;;23.59;21.84;98626.66;5072800;28;20111;-66
2022/05/11 11:52:36;;;;;;;5.07;1.05;;;;;;;23.57;22.09;98623.34;5073499;28;20620;-65
2022/05/11 11:55:22;;;;;;;2.47;1.15;;;;;;;23.59;22.09;98625.84;5082014;28;20368;-66
2022/05/11 11:58:10;;;;;;;4.55;1.15;;;;;;;23.57;21.98;98619.84;5071188;28;20064;-66
2022/05/11 12:00:48;;;;;;;2.53;1.10;;;;;;;23.56;22.03;98620.91;5069653;28;20079;-66
2022/05/11 12:03:19;;;;;;;4.13;1.27;;;;;;;23.59;22.22;98615.03;5074316;28;20176;-64
2022/05/11 12:05:46;;;;;;;;;;;;;;;23.56;22.04;98612.81;5078973;28;20118;-64
2022/05/11 12:16:57;;;;;;;4.10;1.45;;;;;;;23.77;21.76;98620.38;5073012;28;20120;-65
2022/05/11 12:19:34;;;;;;;2.95;1.40;;;;;;;23.77;21.84;98617.69;5066997;28;20048;-65